METAR Data
IDs: Format: Raw Decoded Include TAF

Data at: 2206 UTC 25 Apr 2019

ETSI 252120Z AUTO 35003KT 7000 // ////// 16/03 Q1008 ///